Latest Weather Observations for Warwick

IDQ60901

Issued at 4:51 pm EST Sunday 11 April 2021 (issued every 10 minutes, with the page automatically refreshed every 10 minutes)

About weather observations | Map of Brisbane area stations | Latest observations for Brisbane area | Other Formats
Station Details ID: 041525 Name: WARWICK Lat: -28.21 Lon: 152.10 Height: 475.4 m
Data from the previous 72 hours. | See also: Recent months at Warwick
Date/Time
EST
Temp
°C
App
Temp
°C
Dew
Point
°C
Rel
Hum
%
Delta-T
°C
Wind Press
QNH
hPa
Press
MSL
hPa
Rain since
9am
mm
Dir  Spd
km/h
Gust
km/h
Spd
kts
Gust
kts
11/04:30pm 21.4 17.0 4.9 34 8.3 WSW 17 26 9 14 1011.8 1010.2 0.0
11/04:00pm 21.8 15.5 3.5 30 9.0 WSW 26 35 14 19 1011.4 1009.8 0.0
11/03:30pm 22.5 17.9 5.4 33 8.8 W 19 32 10 17 1011.2 1009.6 0.0
11/03:00pm 22.9 17.8 6.2 34 8.7 W 22 33 12 18 1011.1 1009.5 0.0
11/02:30pm 23.3 18.6 6.1 33 9.0 WSW 20 39 11 21 1011.0 1009.4 0.0
11/02:00pm 23.3 18.5 5.7 32 9.1 WSW 20 33 11 18 1011.2 1009.6 0.0
11/01:30pm 22.9 18.6 7.8 38 8.1 W 20 30 11 16 1011.2 1009.6 0.0
11/01:00pm 23.0 18.5 7.1 36 8.4 W 20 30 11 16 1011.2 1009.6 0.0
11/12:30pm 22.5 17.6 7.1 37 8.1 WSW 22 35 12 19 1011.5 1009.9 0.0
11/12:00pm 23.1 18.9 7.6 37 8.3 W 19 32 10 17 1011.8 1010.2 0.0
11/11:30am 22.6 18.2 7.6 38 8.0 WSW 20 30 11 16 1012.2 1010.6 0.0
11/11:00am 22.6 18.8 7.6 38 8.0 W 17 32 9 17 1012.8 1011.2 0.0
11/10:30am 22.1 18.3 7.5 39 7.8 W 17 30 9 16 1013.1 1011.5 0.0
11/10:00am 21.9 17.6 7.7 40 7.6 WSW 20 30 11 16 1013.1 1011.5 0.0
11/09:30am 21.2 17.4 7.4 41 7.3 WSW 17 26 9 14 1013.2 1011.6 0.0
11/09:00am 19.8 17.4 8.5 48 6.0 WSW 11 15 6 8 1013.2 1011.6 0.0
11/08:30am 18.5 18.9 12.5 68 3.4 SSW 2 9 1 5 1013.1 1011.5 0.0
11/08:00am 15.7 16.4 12.3 80 1.9 CALM 0 0 0 0 1013.0 1011.4 0.0
11/07:30am 14.6 15.3 12.3 86 1.3 CALM 0 0 0 0 1012.8 1011.2 0.0
11/07:00am 12.8 13.3 11.5 92 0.7 CALM 0 0 0 0 1012.5 1010.9 0.0
11/06:30am 11.6 11.7 10.3 92 0.7 CALM 0 0 0 0 1012.3 1010.7 0.0
11/06:00am 10.8 10.7 9.6 92 0.6 CALM 0 0 0 0 1011.8 1010.2 0.0
11/05:30am 11.8 11.9 10.0 89 0.9 CALM 0 0 0 0 1011.2 1009.6 0.0
11/05:00am 12.6 11.7 10.8 89 1.0 NNE 6 7 3 4 1010.9 1009.3 0.0
11/04:30am 11.3 10.2 10.5 95 0.4 NNE 7 9 4 5 1010.7 1009.0 0.0
11/04:00am 11.0 11.0 9.9 93 0.6 CALM 0 6 0 3 1010.3 1008.7 0.0
11/03:30am 12.6 13.0 11.2 91 0.8 CALM 0 0 0 0 1009.9 1008.3 0.0
11/03:00am 12.0 12.3 10.9 93 0.6 CALM 0 0 0 0 1009.8 1008.2 0.0
11/02:30am 12.2 12.5 10.9 92 0.7 CALM 0 0 0 0 1010.3 1008.7 0.0
11/02:00am 11.7 11.8 10.1 90 0.8 CALM 0 0 0 0 1010.3 1008.7 0.0
11/01:30am 12.9 13.1 10.6 86 1.2 CALM 0 0 0 0 1010.4 1008.8 0.0
11/01:00am 13.1 13.3 10.6 85 1.3 CALM 0 7 0 4 1010.8 1009.1 0.0
11/12:30am 14.3 13.8 10.9 80 1.8 N 4 7 2 4 1010.8 1009.1 0.0
11/12:00am 14.7 15.0 10.9 78 2.1 CALM 0 0 0 0 1011.0 1009.4 0.0
 
Date/Time
EST
Temp
°C
App
Temp
°C
Dew
Point
°C
Rel
Hum
%
Delta-T
°C
Wind Press
QNH
hPa
Press
MSL
hPa
Rain since
9am
mm
Dir  Spd
km/h
Gust
km/h
Spd
kts
Gust
kts
10/11:30pm 14.0 12.8 11.5 85 1.4 NE 9 11 5 6 1011.0 1009.4 0.0
10/11:00pm 14.8 15.0 11.8 82 1.7 N 2 7 1 4 1010.7 1009.0 0.0
10/10:30pm 15.9 16.3 11.3 74 2.5 CALM 0 0 0 0 1011.0 1009.4 0.0
10/10:00pm 16.1 16.8 12.1 77 2.2 CALM 0 0 0 0 1011.0 1009.4 0.0
10/09:30pm 16.3 17.0 12.1 76 2.4 CALM 0 0 0 0 1010.9 1009.3 0.0
10/09:00pm 18.5 18.0 10.8 61 4.3 W 4 7 2 4 1010.7 1009.0 0.0
10/08:30pm 18.5 18.2 11.3 63 4.0 WNW 4 9 2 5 1010.3 1008.7 0.0
10/08:00pm 18.8 17.9 11.4 62 4.2 WNW 7 9 4 5 1010.1 1008.5 0.0
10/07:30pm 17.8 18.4 12.0 69 3.3 CALM 0 0 0 0 1010.0 1008.4 0.0
10/07:00pm 20.0 20.3 11.0 56 5.0 CALM 0 0 0 0 1009.7 1008.1 0.0
10/06:30pm 21.3 20.1 10.2 49 6.2 W 7 13 4 7 1009.6 1008.0 0.0
10/06:00pm 21.9 20.9 12.2 54 5.6 WNW 9 11 5 6 1009.3 1007.7 0.0
10/05:30pm 21.9 21.1 11.6 52 5.9 WNW 7 9 4 5 1009.0 1007.4 0.0
10/05:00pm 25.7 24.5 10.3 38 8.8 WSW 7 17 4 9 1008.9 1007.2 0.0
10/04:30pm 26.3 24.0 10.5 37 9.0 WSW 13 20 7 11 1008.6 1006.9 0.0
10/04:00pm 27.0 24.3 10.2 35 9.6 WSW 15 24 8 13 1008.4 1006.7 0.0
10/03:30pm 27.0 23.4 10.7 36 9.4 WSW 20 33 11 18 1008.0 1006.4 0.0
10/03:00pm 27.4 24.2 11.4 37 9.4 WSW 19 28 10 15 1008.0 1006.4 0.0
10/02:30pm 26.6 22.2 9.0 33 9.8 SW 22 37 12 20 1007.9 1006.3 0.0
10/02:00pm 27.5 24.6 11.1 36 9.5 WSW 17 26 9 14 1008.0 1006.4 0.0
10/01:30pm 28.3 25.3 12.6 38 9.4 WSW 20 30 11 16 1008.2 1006.6 0.0
10/01:00pm 27.3 22.6 9.2 32 10.2 WSW 24 35 13 19 1008.6 1006.9 0.0
10/12:30pm 27.8 24.5 9.6 32 10.3 WSW 17 32 9 17 1008.8 1007.1 0.0
10/12:00pm 27.3 25.6 12.5 40 8.8 W 13 24 7 13 1009.3 1007.7 0.0
10/11:30am 26.1 24.4 13.6 46 7.5 WNW 15 30 8 16 1009.8 1008.2 0.0
10/11:00am 25.7 23.8 12.9 45 7.6 W 15 24 8 13 1010.2 1008.6 0.0
10/10:30am 25.3 23.6 13.5 48 7.1 WNW 15 24 8 13 1010.3 1008.7 0.0
10/10:00am 24.3 23.1 12.9 49 6.7 WNW 11 19 6 10 1010.7 1009.0 0.0
10/09:30am 22.6 22.9 14.4 60 4.9 WSW 6 13 3 7 1011.0 1009.4 0.0
10/09:00am 21.1 22.9 15.6 71 3.4 CALM 0 0 0 0 1010.9 1009.3 0.2
10/08:30am 17.6 19.4 15.6 88 1.2 CALM 0 6 0 3 1011.1 1009.5 0.2
10/08:00am 15.7 17.0 14.1 90 0.9 CALM 0 0 0 0 1011.0 1009.4 0.2
10/07:30am 14.4 15.5 13.6 95 0.5 CALM 0 0 0 0 1010.8 1009.1 0.2
10/07:00am 12.8 12.9 12.6 99 0.1 NE 4 7 2 4 1010.3 1008.7 0.2
10/06:30am 10.8 9.7 10.5 98 0.2 NE 7 9 4 5 1010.0 1008.4 0.2
10/06:00am 10.9 11.0 10.3 96 0.3 CALM 0 0 0 0 1010.0 1008.4 0.2
10/05:30am 11.5 11.8 11.0 97 0.3 CALM 0 0 0 0 1009.8 1008.2 0.2
10/05:00am 12.0 12.5 11.7 98 0.2 CALM 0 0 0 0 1009.3 1007.7 0.2
10/04:30am 11.7 12.1 11.4 98 0.2 CALM 0 0 0 0 1009.3 1007.7 0.2
10/04:00am 11.4 11.7 10.8 96 0.3 CALM 0 0 0 0 1009.0 1007.4 0.2
10/03:30am 11.8 12.1 11.0 95 0.4 CALM 0 0 0 0 1009.0 1007.4 0.2
10/03:00am 13.0 13.7 12.1 94 0.5 CALM 0 0 0 0 1009.0 1007.4 0.2
10/02:30am 13.3 14.1 12.5 95 0.4 CALM 0 0 0 0 1009.0 1007.4 0.2
10/02:00am 13.1 13.9 12.6 97 0.3 CALM 0 0 0 0 1009.0 1007.4 0.2
10/01:30am 13.0 13.7 12.2 95 0.4 CALM 0 0 0 0 1009.3 1007.7 0.2
10/01:00am 13.2 13.9 12.3 94 0.5 CALM 0 0 0 0 1009.6 1008.0 0.2
10/12:30am 14.1 14.9 12.7 91 0.8 CALM 0 0 0 0 1009.6 1008.0 0.2
10/12:00am 14.7 15.7 13.1 90 0.9 CALM 0 0 0 0 1009.7 1008.1 0.2
 
Date/Time
EST
Temp
°C
App
Temp
°C
Dew
Point
°C
Rel
Hum
%
Delta-T
°C
Wind Press
QNH
hPa
Press
MSL
hPa
Rain since
9am
mm
Dir  Spd
km/h
Gust
km/h
Spd
kts
Gust
kts
09/11:30pm 14.2 15.2 13.1 93 0.6 CALM 0 0 0 0 1009.8 1008.2 0.2
09/11:00pm 14.2 15.1 12.9 92 0.7 CALM 0 0 0 0 1009.8 1008.2 0.2
09/10:30pm 14.5 15.4 12.9 90 0.9 CALM 0 0 0 0 1010.0 1008.4 0.2
09/10:00pm 15.0 15.4 13.7 92 0.7 NNE 4 7 2 4 1010.0 1008.4 0.2
09/09:30pm 15.5 16.6 13.5 88 1.1 CALM 0 0 0 0 1010.0 1008.4 0.2
09/09:00pm 16.9 17.9 13.2 79 2.1 CALM 0 0 0 0 1009.8 1008.2 0.2
09/08:30pm 17.4 17.7 13.3 77 2.4 NNE 4 6 2 3 1009.6 1008.0 0.2
09/08:00pm 16.6 17.3 13.5 82 1.8 ENE 2 9 1 5 1009.5 1007.9 0.2
09/07:30pm 21.1 20.3 13.0 60 4.7 WNW 9 13 5 7 1009.1 1007.5 0.2
09/07:00pm 20.6 20.3 14.3 67 3.8 WNW 9 11 5 6 1008.8 1007.1 0.2
09/06:30pm 21.3 21.1 13.5 61 4.6 WNW 7 9 4 5 1008.4 1006.7 0.2
09/06:00pm 21.0 20.5 13.9 64 4.2 WNW 9 13 5 7 1008.0 1006.4 0.2
09/05:30pm 23.0 22.0 12.3 51 6.2 WSW 9 15 5 8 1007.9 1006.3 0.2
09/05:00pm 24.9 22.8 12.5 46 7.3 WSW 15 24 8 13 1007.6 1006.0 0.2
09/04:30pm 26.0 24.1 11.7 41 8.3 WSW 13 19 7 10 1007.2 1005.6 0.2
09/04:00pm 26.3 23.5 11.2 38 8.8 WSW 17 30 9 16 1007.1 1005.4 0.2
09/03:30pm 26.6 23.2 11.1 38 9.0 WSW 20 30 11 16 1007.2 1005.6 0.2
09/03:00pm 27.0 22.9 10.2 35 9.6 WSW 22 35 12 19 1007.1 1005.4 0.2
09/02:30pm 27.1 24.4 11.6 38 9.1 W 17 26 9 14 1007.2 1005.6 0.2
09/02:00pm 26.6 24.6 14.0 46 7.7 WSW 17 30 9 16 1007.3 1005.7 0.2
09/01:30pm 27.0 25.2 13.4 43 8.2 W 15 30 8 16 1007.5 1005.9 0.2
09/01:00pm 26.8 24.6 13.2 43 8.2 WSW 17 24 9 13 1007.9 1006.3 0.2
09/12:30pm 26.5 24.4 12.5 41 8.3 WSW 15 28 8 15 1008.4 1006.7 0.2
09/12:00pm 26.3 24.5 14.4 48 7.3 SW 17 28 9 15 1008.8 1007.1 0.2
09/11:30am 25.1 25.1 16.3 58 5.5 W 11 19 6 10 1009.4 1007.8 0.2
09/11:00am 23.7 23.0 16.5 64 4.5 WNW 15 20 8 11 1010.0 1008.4 0.2
09/10:30am 23.4 23.6 16.7 66 4.2 WNW 11 19 6 10 1010.3 1008.7 0.2
09/10:00am 22.4 22.5 16.4 69 3.7 WNW 11 17 6 9 1010.6 1008.9 0.2
09/09:30am 21.7 22.6 16.2 71 3.4 WNW 6 13 3 7 1010.8 1009.1 0.0
09/09:00am 20.8 23.3 17.2 80 2.2 CALM 0 0 0 0 1011.0 1009.4 0.0
09/08:30am 18.4 20.2 15.6 84 1.7 CALM 0 0 0 0 1010.9 1009.3 0.0
09/08:00am 15.2 16.8 14.9 98 0.2 CALM 0 0 0 0 1010.9 1009.3 0.0
09/07:30am 14.0 15.2 13.8 99 0.1 CALM 0 0 0 0 1010.7 1009.0 0.0
09/07:00am 13.1 14.0 12.9 99 0.1 CALM 0 0 0 0 1010.3 1008.7 0.0
09/06:30am 12.4 13.1 12.2 99 0.1 CALM 0 0 0 0 1009.9 1008.3 0.0
09/06:00am 11.4 11.7 10.9 97 0.3 CALM 0 0 0 0 1009.6 1008.0 0.0
09/05:30am 12.0 12.5 11.7 98 0.2 CALM 0 0 0 0 1009.2 1007.6 0.0
09/05:00am 12.4 13.1 12.1 98 0.2 CALM 0 0 0 0 1009.2 1007.6 0.0
09/04:30am 12.4 13.0 11.9 97 0.3 CALM 0 0 0 0 1009.1 1007.5 0.0
09/04:00am 13.3 13.5 13.0 98 0.2 NNE 4 7 2 4 1009.2 1007.6 0.0
09/03:30am 13.0 12.6 12.4 96 0.3 NNE 6 7 3 4 1009.3 1007.7 0.0
09/03:00am 13.9 15.0 13.4 97 0.3 CALM 0 0 0 0 1009.6 1008.0 0.0
09/02:30am 14.4 15.6 13.9 97 0.3 CALM 0 0 0 0 1009.6 1008.0 0.0
09/02:00am 14.6 15.9 14.1 97 0.3 CALM 0 0 0 0 1009.6 1008.0 0.0
09/01:30am 15.1 16.6 14.6 97 0.3 CALM 0 0 0 0 1009.7 1008.1 0.0
09/01:00am 14.8 16.1 14.0 95 0.5 CALM 0 0 0 0 1009.8 1008.2 0.0
09/12:30am 15.1 16.4 14.1 94 0.6 CALM 0 0 0 0 1009.9 1008.3 0.0
09/12:00am 16.5 18.2 15.2 92 0.8 CALM 0 0 0 0 1010.1 1008.5 0.0
 
Date/Time
EST
Temp
°C
App
Temp
°C
Dew
Point
°C
Rel
Hum
%
Delta-T
°C
Wind Press
QNH
hPa
Press
MSL
hPa
Rain since
9am
mm
Dir  Spd
km/h
Gust
km/h
Spd
kts
Gust
kts
08/11:30pm 16.5 18.2 15.2 92 0.8 CALM 0 6 0 3 1010.1 1008.5 0.0
08/11:00pm 16.7 18.5 15.4 92 0.8 CALM 0 0 0 0 1010.7 1009.0 0.0
08/10:30pm 16.8 18.5 15.3 91 0.9 CALM 0 0 0 0 1010.9 1009.3 0.0
08/10:00pm 16.7 18.5 15.6 93 0.7 CALM 0 0 0 0 1011.2 1009.6 0.0
08/09:30pm 17.2 19.0 15.4 89 1.1 CALM 0 4 0 2 1011.1 1009.5 0.0
08/09:00pm 17.6 19.1 15.6 88 1.2 SE 2 7 1 4 1011.1 1009.5 0.0
08/08:30pm 17.8 19.8 16.0 89 1.1 CALM 0 0 0 0 1010.8 1009.1 0.0
08/08:00pm 18.3 20.3 15.9 86 1.5 CALM 0 2 0 1 1010.6 1008.9 0.0
08/07:30pm 18.0 19.8 15.4 85 1.6 CALM 0 0 0 0 1010.3 1008.7 0.0
08/07:00pm 19.5 20.0 15.6 78 2.4 SE 7 15 4 8 1009.8 1008.2 0.0
08/06:30pm 20.3 20.2 15.9 76 2.7 SE 11 19 6 10 1009.5 1007.9 0.0
08/06:00pm 20.8 21.2 16.2 75 2.8 SE 9 13 5 7 1009.2 1007.6 0.0
08/05:30pm 21.9 22.6 16.0 69 3.6 SSE 7 13 4 7 1008.7 1007.0 0.0
08/05:00pm 23.2 24.0 15.8 63 4.6 ESE 6 13 3 7 1008.2 1006.6 0.0

Latest Capital City Observations: Canberra | Sydney | Melbourne | Brisbane | Adelaide | Perth | Hobart | Darwin

Other formats

Comma delimited format used in spreadsheet applications
http://www.bom.gov.au/fwo/IDQ60901/IDQ60901.94555.axf

JavaScript Object Notation format (JSON) in row-major order
http://www.bom.gov.au/fwo/IDQ60901/IDQ60901.94555.json

Data quality

Most of these data are generated automatically and are frequently updated. Quality checks on data are not normally performed. It is possible for incorrect values to appear. Refer to information at About Latest Weather Observations and please check the disclaimer before using these data.